Terminal Aerodrome Forecast
Issued by NWS Austin/San Antonio, TX

Home | Current Version | Previous Version | Text Only | Print | Product List | Glossary On
Versions: 1 2 3 4 5 6 7 8 9 10 11 12 13 14 15 16 17 18 19 20 21 22 23 24 25 26 27 28
000
FTUS44 KEWX 011400 AAA
TAFAUS
TAF AMD
KAUS 011401Z 0114/0218 36009KT 3SM -DZ BR OVC005
      TEMPO 0114/0118 1SM -DZ BR OVC003
     FM011800 01010KT 3SM BR VCSH OVC007
     FM020300 02010KT 4SM BR OVC005
     FM021100 01010KT 3SM BR OVC003=

USA.gov is the U.S. government's official web portal to all federal, state and local government web resources and services.